sensor_id;sensor_type;location;lat;lon;timestamp;P1;durP1;ratioP1;P2;durP2;ratioP2
74849;SDS011;63397;47.480;19.238;2022-12-07T00:01:45;39.50;;;15.15;;
74849;SDS011;63397;47.480;19.238;2022-12-07T00:04:48;47.30;;;17.23;;
74849;SDS011;63397;47.480;19.238;2022-12-07T00:07:50;41.33;;;16.45;;
74849;SDS011;63397;47.480;19.238;2022-12-07T00:10:53;38.13;;;15.82;;
74849;SDS011;63397;47.480;19.238;2022-12-07T00:13:56;37.53;;;16.30;;
74849;SDS011;63397;47.480;19.238;2022-12-07T00:16:58;36.50;;;15.15;;
74849;SDS011;63397;47.480;19.238;2022-12-07T00:20:01;36.63;;;14.90;;
74849;SDS011;63397;47.480;19.238;2022-12-07T00:23:04;37.17;;;15.48;;
74849;SDS011;63397;47.480;19.238;2022-12-07T00:26:10;35.58;;;14.73;;
74849;SDS011;63397;47.480;19.238;2022-12-07T00:29:17;30.48;;;13.40;;
74849;SDS011;63397;47.480;19.238;2022-12-07T00:32:19;30.02;;;13.10;;
74849;SDS011;63397;47.480;19.238;2022-12-07T00:35:22;31.40;;;13.37;;
74849;SDS011;63397;47.480;19.238;2022-12-07T00:38:24;36.33;;;14.02;;
74849;SDS011;63397;47.480;19.238;2022-12-07T00:41:29;31.73;;;13.05;;
74849;SDS011;63397;47.480;19.238;2022-12-07T00:44:31;33.55;;;14.57;;
74849;SDS011;63397;47.480;19.238;2022-12-07T00:47:33;36.80;;;14.63;;
74849;SDS011;63397;47.480;19.238;2022-12-07T00:50:36;33.00;;;14.00;;
74849;SDS011;63397;47.480;19.238;2022-12-07T00:53:38;36.60;;;14.30;;
74849;SDS011;63397;47.480;19.238;2022-12-07T00:56:43;33.30;;;13.82;;
74849;SDS011;63397;47.480;19.238;2022-12-07T00:59:45;36.47;;;14.80;;
74849;SDS011;63397;47.480;19.238;2022-12-07T01:02:47;45.22;;;16.77;;
74849;SDS011;63397;47.480;19.238;2022-12-07T01:05:51;39.80;;;16.80;;
74849;SDS011;63397;47.480;19.238;2022-12-07T01:08:53;39.60;;;16.90;;
74849;SDS011;63397;47.480;19.238;2022-12-07T01:11:56;40.03;;;16.52;;
74849;SDS011;63397;47.480;19.238;2022-12-07T01:14:58;36.92;;;16.55;;
74849;SDS011;63397;47.480;19.238;2022-12-07T01:18:01;42.22;;;15.40;;
74849;SDS011;63397;47.480;19.238;2022-12-07T01:21:04;34.57;;;15.87;;
74849;SDS011;63397;47.480;19.238;2022-12-07T01:24:09;36.70;;;15.38;;
74849;SDS011;63397;47.480;19.238;2022-12-07T01:27:12;43.50;;;15.40;;
74849;SDS011;63397;47.480;19.238;2022-12-07T01:30:15;41.80;;;16.15;;
74849;SDS011;63397;47.480;19.238;2022-12-07T01:33:17;44.80;;;17.05;;
74849;SDS011;63397;47.480;19.238;2022-12-07T01:39:22;44.88;;;17.50;;
74849;SDS011;63397;47.480;19.238;2022-12-07T01:42:24;42.80;;;17.20;;
74849;SDS011;63397;47.480;19.238;2022-12-07T01:45:38;36.90;;;15.40;;
74849;SDS011;63397;47.480;19.238;2022-12-07T01:48:41;42.42;;;15.75;;
74849;SDS011;63397;47.480;19.238;2022-12-07T01:51:43;38.63;;;16.23;;
74849;SDS011;63397;47.480;19.238;2022-12-07T01:54:47;38.70;;;15.10;;
74849;SDS011;63397;47.480;19.238;2022-12-07T01:57:52;42.53;;;16.75;;
74849;SDS011;63397;47.480;19.238;2022-12-07T02:00:55;41.80;;;16.30;;
74849;SDS011;63397;47.480;19.238;2022-12-07T02:03:57;46.40;;;18.13;;
74849;SDS011;63397;47.480;19.238;2022-12-07T02:07:00;42.43;;;16.43;;
74849;SDS011;63397;47.480;19.238;2022-12-07T02:10:15;47.00;;;17.10;;
74849;SDS011;63397;47.480;19.238;2022-12-07T02:13:20;46.70;;;17.73;;
74849;SDS011;63397;47.480;19.238;2022-12-07T02:32:03;65.57;;;21.27;;
74849;SDS011;63397;47.480;19.238;2022-12-07T02:35:08;67.00;;;22.00;;
74849;SDS011;63397;47.480;19.238;2022-12-07T02:41:35;61.97;;;21.73;;
74849;SDS011;63397;47.480;19.238;2022-12-07T02:44:36;56.45;;;20.15;;
74849;SDS011;63397;47.480;19.238;2022-12-07T02:47:38;61.13;;;21.27;;
74849;SDS011;63397;47.480;19.238;2022-12-07T02:50:50;61.60;;;21.02;;
74849;SDS011;63397;47.480;19.238;2022-12-07T02:53:53;51.73;;;20.03;;
74849;SDS011;63397;47.480;19.238;2022-12-07T02:57:02;51.10;;;19.10;;
74849;SDS011;63397;47.480;19.238;2022-12-07T03:00:08;48.40;;;18.52;;
74849;SDS011;63397;47.480;19.238;2022-12-07T03:03:10;50.85;;;18.35;;
74849;SDS011;63397;47.480;19.238;2022-12-07T03:06:22;54.42;;;19.45;;
74849;SDS011;63397;47.480;19.238;2022-12-07T03:09:37;48.27;;;18.27;;
74849;SDS011;63397;47.480;19.238;2022-12-07T03:12:45;49.70;;;18.17;;
74849;SDS011;63397;47.480;19.238;2022-12-07T03:18:58;41.67;;;16.08;;
74849;SDS011;63397;47.480;19.238;2022-12-07T03:22:02;53.28;;;18.08;;
74849;SDS011;63397;47.480;19.238;2022-12-07T03:25:06;45.60;;;17.43;;
74849;SDS011;63397;47.480;19.238;2022-12-07T03:28:10;46.95;;;16.00;;
74849;SDS011;63397;47.480;19.238;2022-12-07T03:34:18;50.28;;;17.67;;
74849;SDS011;63397;47.480;19.238;2022-12-07T03:37:26;40.95;;;15.65;;
74849;SDS011;63397;47.480;19.238;2022-12-07T03:40:42;42.53;;;16.83;;
74849;SDS011;63397;47.480;19.238;2022-12-07T03:43:45;41.08;;;17.42;;
74849;SDS011;63397;47.480;19.238;2022-12-07T03:50:07;47.85;;;16.17;;
74849;SDS011;63397;47.480;19.238;2022-12-07T03:53:18;47.90;;;17.30;;
74849;SDS011;63397;47.480;19.238;2022-12-07T03:56:22;44.10;;;17.43;;
74849;SDS011;63397;47.480;19.238;2022-12-07T03:59:25;48.47;;;16.77;;
74849;SDS011;63397;47.480;19.238;2022-12-07T04:02:27;49.05;;;16.88;;
74849;SDS011;63397;47.480;19.238;2022-12-07T04:05:30;50.92;;;17.55;;
74849;SDS011;63397;47.480;19.238;2022-12-07T04:08:33;44.45;;;16.77;;
74849;SDS011;63397;47.480;19.238;2022-12-07T04:11:35;45.63;;;17.20;;
74849;SDS011;63397;47.480;19.238;2022-12-07T04:14:38;46.45;;;17.50;;
74849;SDS011;63397;47.480;19.238;2022-12-07T04:17:40;52.33;;;17.35;;
74849;SDS011;63397;47.480;19.238;2022-12-07T04:20:42;53.97;;;17.73;;
74849;SDS011;63397;47.480;19.238;2022-12-07T04:23:44;52.95;;;18.48;;
74849;SDS011;63397;47.480;19.238;2022-12-07T04:26:47;47.60;;;17.20;;
74849;SDS011;63397;47.480;19.238;2022-12-07T04:29:49;54.40;;;19.25;;
74849;SDS011;63397;47.480;19.238;2022-12-07T04:32:51;54.88;;;17.85;;
74849;SDS011;63397;47.480;19.238;2022-12-07T04:35:54;52.65;;;17.95;;
74849;SDS011;63397;47.480;19.238;2022-12-07T04:38:57;52.00;;;17.88;;
74849;SDS011;63397;47.480;19.238;2022-12-07T04:41:59;54.77;;;17.83;;
74849;SDS011;63397;47.480;19.238;2022-12-07T04:45:02;49.42;;;18.80;;
74849;SDS011;63397;47.480;19.238;2022-12-07T04:48:04;52.55;;;18.27;;
74849;SDS011;63397;47.480;19.238;2022-12-07T04:51:07;53.90;;;19.08;;
74849;SDS011;63397;47.480;19.238;2022-12-07T04:54:09;54.65;;;19.40;;
74849;SDS011;63397;47.480;19.238;2022-12-07T04:57:12;48.57;;;18.57;;
74849;SDS011;63397;47.480;19.238;2022-12-07T05:00:14;50.03;;;19.27;;
74849;SDS011;63397;47.480;19.238;2022-12-07T05:03:17;48.53;;;19.60;;
74849;SDS011;63397;47.480;19.238;2022-12-07T05:06:19;54.63;;;18.83;;
74849;SDS011;63397;47.480;19.238;2022-12-07T05:09:22;49.58;;;18.45;;
74849;SDS011;63397;47.480;19.238;2022-12-07T05:12:24;50.87;;;19.60;;
74849;SDS011;63397;47.480;19.238;2022-12-07T05:15:26;54.50;;;21.17;;
74849;SDS011;63397;47.480;19.238;2022-12-07T05:18:28;56.33;;;20.52;;
74849;SDS011;63397;47.480;19.238;2022-12-07T05:21:30;56.65;;;21.08;;
74849;SDS011;63397;47.480;19.238;2022-12-07T05:24:33;51.35;;;19.65;;
74849;SDS011;63397;47.480;19.238;2022-12-07T05:27:35;55.57;;;21.47;;
74849;SDS011;63397;47.480;19.238;2022-12-07T05:30:37;67.65;;;22.98;;
74849;SDS011;63397;47.480;19.238;2022-12-07T05:33:39;60.50;;;21.88;;
74849;SDS011;63397;47.480;19.238;2022-12-07T05:36:41;55.63;;;20.13;;
74849;SDS011;63397;47.480;19.238;2022-12-07T05:39:44;54.35;;;19.48;;
74849;SDS011;63397;47.480;19.238;2022-12-07T05:42:46;57.20;;;19.33;;
74849;SDS011;63397;47.480;19.238;2022-12-07T05:45:48;50.95;;;18.67;;
74849;SDS011;63397;47.480;19.238;2022-12-07T05:48:51;43.78;;;18.83;;
74849;SDS011;63397;47.480;19.238;2022-12-07T05:51:53;49.97;;;18.88;;
74849;SDS011;63397;47.480;19.238;2022-12-07T05:54:55;49.03;;;18.48;;
74849;SDS011;63397;47.480;19.238;2022-12-07T05:57:57;50.43;;;18.27;;
74849;SDS011;63397;47.480;19.238;2022-12-07T06:01:18;53.25;;;19.13;;
74849;SDS011;63397;47.480;19.238;2022-12-07T06:04:20;49.42;;;18.05;;
74849;SDS011;63397;47.480;19.238;2022-12-07T06:07:23;53.53;;;18.73;;
74849;SDS011;63397;47.480;19.238;2022-12-07T06:10:25;44.78;;;17.58;;
74849;SDS011;63397;47.480;19.238;2022-12-07T06:13:27;50.80;;;18.70;;
74849;SDS011;63397;47.480;19.238;2022-12-07T06:16:30;52.63;;;19.88;;
74849;SDS011;63397;47.480;19.238;2022-12-07T06:19:32;59.22;;;20.73;;
74849;SDS011;63397;47.480;19.238;2022-12-07T06:22:34;56.03;;;18.73;;
74849;SDS011;63397;47.480;19.238;2022-12-07T06:25:36;55.78;;;18.42;;
74849;SDS011;63397;47.480;19.238;2022-12-07T06:28:39;52.20;;;17.97;;
74849;SDS011;63397;47.480;19.238;2022-12-07T06:31:42;56.25;;;18.73;;
74849;SDS011;63397;47.480;19.238;2022-12-07T06:34:45;53.70;;;19.05;;
74849;SDS011;63397;47.480;19.238;2022-12-07T06:37:48;53.95;;;19.50;;
74849;SDS011;63397;47.480;19.238;2022-12-07T06:40:50;60.65;;;18.67;;
74849;SDS011;63397;47.480;19.238;2022-12-07T06:43:53;65.67;;;21.37;;
74849;SDS011;63397;47.480;19.238;2022-12-07T06:46:59;58.10;;;21.75;;
74849;SDS011;63397;47.480;19.238;2022-12-07T06:50:33;69.60;;;21.50;;
74849;SDS011;63397;47.480;19.238;2022-12-07T06:53:41;63.85;;;20.52;;
74849;SDS011;63397;47.480;19.238;2022-12-07T06:56:45;68.93;;;21.45;;
74849;SDS011;63397;47.480;19.238;2022-12-07T06:59:52;59.33;;;21.30;;
74849;SDS011;63397;47.480;19.238;2022-12-07T07:03:07;68.78;;;21.98;;
74849;SDS011;63397;47.480;19.238;2022-12-07T07:06:10;68.75;;;22.23;;
74849;SDS011;63397;47.480;19.238;2022-12-07T07:09:12;74.07;;;22.92;;
74849;SDS011;63397;47.480;19.238;2022-12-07T07:12:15;75.10;;;22.88;;
74849;SDS011;63397;47.480;19.238;2022-12-07T07:15:18;76.13;;;22.67;;
74849;SDS011;63397;47.480;19.238;2022-12-07T07:18:21;79.97;;;24.38;;
74849;SDS011;63397;47.480;19.238;2022-12-07T07:21:25;88.57;;;27.40;;
74849;SDS011;63397;47.480;19.238;2022-12-07T07:24:27;84.93;;;28.20;;
74849;SDS011;63397;47.480;19.238;2022-12-07T07:27:30;80.40;;;25.55;;
74849;SDS011;63397;47.480;19.238;2022-12-07T07:30:34;69.93;;;24.07;;
74849;SDS011;63397;47.480;19.238;2022-12-07T07:33:37;67.90;;;23.45;;
74849;SDS011;63397;47.480;19.238;2022-12-07T07:36:40;66.90;;;21.95;;
74849;SDS011;63397;47.480;19.238;2022-12-07T07:39:43;63.47;;;21.75;;
74849;SDS011;63397;47.480;19.238;2022-12-07T07:42:51;68.47;;;21.73;;
74849;SDS011;63397;47.480;19.238;2022-12-07T07:45:54;65.70;;;22.17;;
74849;SDS011;63397;47.480;19.238;2022-12-07T07:48:56;63.47;;;23.25;;
74849;SDS011;63397;47.480;19.238;2022-12-07T07:51:59;63.58;;;23.58;;
74849;SDS011;63397;47.480;19.238;2022-12-07T07:55:02;71.30;;;23.50;;
74849;SDS011;63397;47.480;19.238;2022-12-07T07:58:04;63.20;;;24.17;;
74849;SDS011;63397;47.480;19.238;2022-12-07T08:01:08;65.23;;;24.03;;
74849;SDS011;63397;47.480;19.238;2022-12-07T08:04:10;62.10;;;22.02;;
74849;SDS011;63397;47.480;19.238;2022-12-07T08:07:14;58.60;;;22.00;;
74849;SDS011;63397;47.480;19.238;2022-12-07T08:10:17;54.55;;;21.50;;
74849;SDS011;63397;47.480;19.238;2022-12-07T08:13:19;58.50;;;21.23;;
74849;SDS011;63397;47.480;19.238;2022-12-07T08:16:28;58.03;;;20.47;;
74849;SDS011;63397;47.480;19.238;2022-12-07T08:19:30;53.85;;;20.17;;
74849;SDS011;63397;47.480;19.238;2022-12-07T08:22:33;53.63;;;20.17;;
74849;SDS011;63397;47.480;19.238;2022-12-07T08:25:35;51.88;;;19.80;;
74849;SDS011;63397;47.480;19.238;2022-12-07T08:28:38;51.40;;;19.90;;
74849;SDS011;63397;47.480;19.238;2022-12-07T08:31:40;44.87;;;19.30;;
74849;SDS011;63397;47.480;19.238;2022-12-07T08:34:43;51.88;;;20.20;;
74849;SDS011;63397;47.480;19.238;2022-12-07T08:37:45;52.22;;;20.88;;
74849;SDS011;63397;47.480;19.238;2022-12-07T08:40:54;44.17;;;19.27;;
74849;SDS011;63397;47.480;19.238;2022-12-07T08:43:57;49.05;;;19.08;;
74849;SDS011;63397;47.480;19.238;2022-12-07T08:47:01;46.23;;;18.60;;
74849;SDS011;63397;47.480;19.238;2022-12-07T08:50:05;48.38;;;18.00;;
74849;SDS011;63397;47.480;19.238;2022-12-07T08:53:10;51.25;;;21.35;;
74849;SDS011;63397;47.480;19.238;2022-12-07T08:56:29;58.45;;;21.27;;
74849;SDS011;63397;47.480;19.238;2022-12-07T08:59:33;53.15;;;20.67;;
74849;SDS011;63397;47.480;19.238;2022-12-07T09:02:41;41.67;;;17.97;;
74849;SDS011;63397;47.480;19.238;2022-12-07T09:05:46;44.80;;;18.80;;
74849;SDS011;63397;47.480;19.238;2022-12-07T09:08:49;48.78;;;19.48;;
74849;SDS011;63397;47.480;19.238;2022-12-07T09:11:55;45.65;;;18.75;;
74849;SDS011;63397;47.480;19.238;2022-12-07T09:14:59;45.22;;;18.13;;
74849;SDS011;63397;47.480;19.238;2022-12-07T09:18:04;42.70;;;18.47;;
74849;SDS011;63397;47.480;19.238;2022-12-07T09:21:07;44.83;;;18.35;;
74849;SDS011;63397;47.480;19.238;2022-12-07T09:24:11;42.85;;;18.48;;
74849;SDS011;63397;47.480;19.238;2022-12-07T09:27:14;43.47;;;18.77;;
74849;SDS011;63397;47.480;19.238;2022-12-07T09:30:23;43.17;;;17.58;;
74849;SDS011;63397;47.480;19.238;2022-12-07T09:33:29;36.60;;;16.10;;
74849;SDS011;63397;47.480;19.238;2022-12-07T09:36:32;38.15;;;16.55;;
74849;SDS011;63397;47.480;19.238;2022-12-07T09:39:38;37.13;;;15.52;;
74849;SDS011;63397;47.480;19.238;2022-12-07T09:42:51;39.75;;;15.25;;
74849;SDS011;63397;47.480;19.238;2022-12-07T09:45:54;35.47;;;15.40;;
74849;SDS011;63397;47.480;19.238;2022-12-07T09:48:58;33.50;;;15.60;;
74849;SDS011;63397;47.480;19.238;2022-12-07T09:55:11;34.70;;;15.68;;
74849;SDS011;63397;47.480;19.238;2022-12-07T09:58:35;40.38;;;17.02;;
74849;SDS011;63397;47.480;19.238;2022-12-07T10:01:37;40.28;;;17.30;;
74849;SDS011;63397;47.480;19.238;2022-12-07T10:04:46;38.53;;;16.67;;
74849;SDS011;63397;47.480;19.238;2022-12-07T10:07:49;38.95;;;17.10;;
74849;SDS011;63397;47.480;19.238;2022-12-07T10:10:56;39.50;;;16.30;;
74849;SDS011;63397;47.480;19.238;2022-12-07T10:14:10;36.00;;;15.93;;
74849;SDS011;63397;47.480;19.238;2022-12-07T10:17:33;35.58;;;15.68;;
74849;SDS011;63397;47.480;19.238;2022-12-07T10:20:36;37.70;;;16.67;;
74849;SDS011;63397;47.480;19.238;2022-12-07T10:24:13;35.00;;;15.50;;
74849;SDS011;63397;47.480;19.238;2022-12-07T10:27:20;36.95;;;16.50;;
74849;SDS011;63397;47.480;19.238;2022-12-07T10:30:30;43.28;;;19.05;;
74849;SDS011;63397;47.480;19.238;2022-12-07T10:33:36;42.00;;;18.42;;
74849;SDS011;63397;47.480;19.238;2022-12-07T10:36:40;38.00;;;17.47;;
74849;SDS011;63397;47.480;19.238;2022-12-07T10:42:46;44.13;;;19.15;;
74849;SDS011;63397;47.480;19.238;2022-12-07T10:56:12;37.47;;;17.10;;
74849;SDS011;63397;47.480;19.238;2022-12-07T11:09:36;36.80;;;17.30;;
74849;SDS011;63397;47.480;19.238;2022-12-07T11:29:19;22.83;;;10.77;;
74849;SDS011;63397;47.480;19.238;2022-12-07T11:32:40;20.63;;;9.68;;
74849;SDS011;63397;47.480;19.238;2022-12-07T11:38:54;25.80;;;11.25;;
74849;SDS011;63397;47.480;19.238;2022-12-07T11:42:01;23.40;;;11.70;;
74849;SDS011;63397;47.480;19.238;2022-12-07T11:48:14;26.08;;;11.93;;
74849;SDS011;63397;47.480;19.238;2022-12-07T11:51:25;25.23;;;11.18;;
74849;SDS011;63397;47.480;19.238;2022-12-07T11:54:40;20.80;;;9.88;;
74849;SDS011;63397;47.480;19.238;2022-12-07T11:57:46;17.73;;;8.93;;
74849;SDS011;63397;47.480;19.238;2022-12-07T12:01:04;19.85;;;8.52;;
74849;SDS011;63397;47.480;19.238;2022-12-07T12:07:23;21.08;;;9.65;;
74849;SDS011;63397;47.480;19.238;2022-12-07T12:11:03;15.48;;;6.63;;
74849;SDS011;63397;47.480;19.238;2022-12-07T12:14:20;13.00;;;5.53;;
74849;SDS011;63397;47.480;19.238;2022-12-07T12:21:00;11.13;;;5.10;;
74849;SDS011;63397;47.480;19.238;2022-12-07T12:24:08;10.25;;;4.68;;
74849;SDS011;63397;47.480;19.238;2022-12-07T12:27:19;10.77;;;4.50;;
74849;SDS011;63397;47.480;19.238;2022-12-07T12:30:29;9.40;;;4.47;;
74849;SDS011;63397;47.480;19.238;2022-12-07T12:33:36;9.52;;;4.25;;
74849;SDS011;63397;47.480;19.238;2022-12-07T12:43:59;10.00;;;3.85;;
74849;SDS011;63397;47.480;19.238;2022-12-07T12:53:20;10.45;;;4.40;;
74849;SDS011;63397;47.480;19.238;2022-12-07T12:56:42;8.82;;;3.75;;
74849;SDS011;63397;47.480;19.238;2022-12-07T13:03:56;12.47;;;4.57;;
74849;SDS011;63397;47.480;19.238;2022-12-07T13:10:48;13.52;;;5.18;;
74849;SDS011;63397;47.480;19.238;2022-12-07T13:13:52;14.18;;;5.32;;
74849;SDS011;63397;47.480;19.238;2022-12-07T13:20:50;10.77;;;4.33;;
74849;SDS011;63397;47.480;19.238;2022-12-07T13:23:59;10.52;;;4.30;;
74849;SDS011;63397;47.480;19.238;2022-12-07T13:27:38;12.73;;;5.00;;
74849;SDS011;63397;47.480;19.238;2022-12-07T13:30:45;11.35;;;4.47;;
74849;SDS011;63397;47.480;19.238;2022-12-07T13:33:52;11.15;;;4.93;;
74849;SDS011;63397;47.480;19.238;2022-12-07T13:36:55;10.03;;;4.90;;
74849;SDS011;63397;47.480;19.238;2022-12-07T13:40:00;13.88;;;5.13;;
74849;SDS011;63397;47.480;19.238;2022-12-07T13:43:11;11.60;;;4.78;;
74849;SDS011;63397;47.480;19.238;2022-12-07T13:46:15;10.93;;;4.63;;
74849;SDS011;63397;47.480;19.238;2022-12-07T13:52:23;12.80;;;5.03;;
74849;SDS011;63397;47.480;19.238;2022-12-07T13:55:26;12.98;;;5.45;;
74849;SDS011;63397;47.480;19.238;2022-12-07T13:58:30;12.25;;;5.53;;
74849;SDS011;63397;47.480;19.238;2022-12-07T14:01:34;14.45;;;6.22;;
74849;SDS011;63397;47.480;19.238;2022-12-07T14:04:38;12.43;;;4.88;;
74849;SDS011;63397;47.480;19.238;2022-12-07T14:10:59;10.85;;;4.40;;
74849;SDS011;63397;47.480;19.238;2022-12-07T14:14:02;14.75;;;5.20;;
74849;SDS011;63397;47.480;19.238;2022-12-07T14:17:17;14.75;;;5.82;;
74849;SDS011;63397;47.480;19.238;2022-12-07T14:20:30;14.63;;;4.90;;
74849;SDS011;63397;47.480;19.238;2022-12-07T14:23:33;14.00;;;5.60;;
74849;SDS011;63397;47.480;19.238;2022-12-07T14:26:36;12.55;;;5.15;;
74849;SDS011;63397;47.480;19.238;2022-12-07T14:29:42;11.38;;;4.88;;
74849;SDS011;63397;47.480;19.238;2022-12-07T14:32:54;14.50;;;5.80;;
74849;SDS011;63397;47.480;19.238;2022-12-07T14:35:57;14.77;;;5.65;;
74849;SDS011;63397;47.480;19.238;2022-12-07T14:39:01;13.13;;;5.23;;
74849;SDS011;63397;47.480;19.238;2022-12-07T14:42:07;15.35;;;6.07;;
74849;SDS011;63397;47.480;19.238;2022-12-07T14:45:16;15.93;;;6.07;;
74849;SDS011;63397;47.480;19.238;2022-12-07T14:48:23;14.45;;;5.82;;
74849;SDS011;63397;47.480;19.238;2022-12-07T14:51:51;15.63;;;7.00;;
74849;SDS011;63397;47.480;19.238;2022-12-07T14:55:20;14.63;;;6.03;;
74849;SDS011;63397;47.480;19.238;2022-12-07T14:58:25;14.43;;;5.80;;
74849;SDS011;63397;47.480;19.238;2022-12-07T15:01:27;13.77;;;5.53;;
74849;SDS011;63397;47.480;19.238;2022-12-07T15:04:29;16.90;;;6.05;;
74849;SDS011;63397;47.480;19.238;2022-12-07T15:07:32;14.52;;;6.35;;
74849;SDS011;63397;47.480;19.238;2022-12-07T15:10:35;13.97;;;5.43;;
74849;SDS011;63397;47.480;19.238;2022-12-07T15:13:41;13.98;;;5.60;;
74849;SDS011;63397;47.480;19.238;2022-12-07T15:17:03;16.23;;;5.63;;
74849;SDS011;63397;47.480;19.238;2022-12-07T15:20:13;12.13;;;4.90;;
74849;SDS011;63397;47.480;19.238;2022-12-07T15:23:15;13.65;;;5.60;;
74849;SDS011;63397;47.480;19.238;2022-12-07T15:26:19;15.27;;;6.27;;
74849;SDS011;63397;47.480;19.238;2022-12-07T15:29:21;12.57;;;4.88;;
74849;SDS011;63397;47.480;19.238;2022-12-07T15:32:25;14.40;;;5.38;;
74849;SDS011;63397;47.480;19.238;2022-12-07T15:35:27;18.13;;;6.20;;
74849;SDS011;63397;47.480;19.238;2022-12-07T15:38:29;13.65;;;4.95;;
74849;SDS011;63397;47.480;19.238;2022-12-07T15:41:52;14.03;;;5.23;;
74849;SDS011;63397;47.480;19.238;2022-12-07T15:44:54;14.77;;;6.28;;
74849;SDS011;63397;47.480;19.238;2022-12-07T15:48:07;15.27;;;6.05;;
74849;SDS011;63397;47.480;19.238;2022-12-07T15:51:29;15.88;;;6.32;;
74849;SDS011;63397;47.480;19.238;2022-12-07T15:54:32;17.40;;;6.80;;
74849;SDS011;63397;47.480;19.238;2022-12-07T15:57:35;14.63;;;6.17;;
74849;SDS011;63397;47.480;19.238;2022-12-07T16:00:38;18.75;;;6.53;;
74849;SDS011;63397;47.480;19.238;2022-12-07T16:03:41;17.20;;;6.78;;
74849;SDS011;63397;47.480;19.238;2022-12-07T16:06:44;18.25;;;6.93;;
74849;SDS011;63397;47.480;19.238;2022-12-07T16:09:46;21.38;;;7.05;;
74849;SDS011;63397;47.480;19.238;2022-12-07T16:12:49;20.27;;;7.83;;
74849;SDS011;63397;47.480;19.238;2022-12-07T16:15:51;21.58;;;7.78;;
74849;SDS011;63397;47.480;19.238;2022-12-07T16:18:53;27.05;;;10.23;;
74849;SDS011;63397;47.480;19.238;2022-12-07T16:21:56;25.40;;;10.07;;
74849;SDS011;63397;47.480;19.238;2022-12-07T16:24:58;25.67;;;10.70;;
74849;SDS011;63397;47.480;19.238;2022-12-07T16:28:01;28.70;;;10.10;;
74849;SDS011;63397;47.480;19.238;2022-12-07T16:31:05;29.05;;;10.30;;
74849;SDS011;63397;47.480;19.238;2022-12-07T16:34:08;30.92;;;10.18;;
74849;SDS011;63397;47.480;19.238;2022-12-07T16:37:11;24.33;;;9.48;;
74849;SDS011;63397;47.480;19.238;2022-12-07T16:40:13;26.02;;;9.30;;
74849;SDS011;63397;47.480;19.238;2022-12-07T16:43:15;20.63;;;7.93;;
74849;SDS011;63397;47.480;19.238;2022-12-07T16:46:18;25.00;;;8.77;;
74849;SDS011;63397;47.480;19.238;2022-12-07T16:49:20;23.55;;;8.38;;
74849;SDS011;63397;47.480;19.238;2022-12-07T16:52:23;26.45;;;8.90;;
74849;SDS011;63397;47.480;19.238;2022-12-07T16:55:25;21.63;;;8.35;;
74849;SDS011;63397;47.480;19.238;2022-12-07T16:58:28;23.13;;;8.23;;
74849;SDS011;63397;47.480;19.238;2022-12-07T17:01:30;20.63;;;7.85;;
74849;SDS011;63397;47.480;19.238;2022-12-07T17:04:33;21.33;;;8.13;;
74849;SDS011;63397;47.480;19.238;2022-12-07T17:07:35;23.60;;;8.75;;
74849;SDS011;63397;47.480;19.238;2022-12-07T17:10:39;22.60;;;8.38;;
74849;SDS011;63397;47.480;19.238;2022-12-07T17:13:41;23.70;;;7.73;;
74849;SDS011;63397;47.480;19.238;2022-12-07T17:17:02;23.25;;;8.07;;
74849;SDS011;63397;47.480;19.238;2022-12-07T17:20:06;24.98;;;8.50;;
74849;SDS011;63397;47.480;19.238;2022-12-07T17:23:08;21.73;;;8.02;;
74849;SDS011;63397;47.480;19.238;2022-12-07T17:26:12;22.98;;;8.25;;
74849;SDS011;63397;47.480;19.238;2022-12-07T17:29:16;23.77;;;7.90;;
74849;SDS011;63397;47.480;19.238;2022-12-07T17:32:18;22.27;;;8.75;;
74849;SDS011;63397;47.480;19.238;2022-12-07T17:35:20;29.55;;;9.98;;
74849;SDS011;63397;47.480;19.238;2022-12-07T17:38:23;27.08;;;11.05;;
74849;SDS011;63397;47.480;19.238;2022-12-07T17:41:26;30.83;;;11.85;;
74849;SDS011;63397;47.480;19.238;2022-12-07T17:44:47;38.80;;;13.20;;
74849;SDS011;63397;47.480;19.238;2022-12-07T17:47:49;35.33;;;13.05;;
74849;SDS011;63397;47.480;19.238;2022-12-07T17:50:52;32.63;;;12.00;;
74849;SDS011;63397;47.480;19.238;2022-12-07T17:54:13;38.17;;;12.13;;
74849;SDS011;63397;47.480;19.238;2022-12-07T17:57:15;36.72;;;13.02;;
74849;SDS011;63397;47.480;19.238;2022-12-07T18:00:17;33.17;;;12.33;;
74849;SDS011;63397;47.480;19.238;2022-12-07T18:03:20;39.83;;;15.30;;
74849;SDS011;63397;47.480;19.238;2022-12-07T18:06:22;39.95;;;14.82;;
74849;SDS011;63397;47.480;19.238;2022-12-07T18:09:25;41.20;;;14.15;;
74849;SDS011;63397;47.480;19.238;2022-12-07T18:12:27;32.28;;;12.60;;
74849;SDS011;63397;47.480;19.238;2022-12-07T18:15:32;33.33;;;13.77;;
74849;SDS011;63397;47.480;19.238;2022-12-07T18:18:35;36.92;;;14.68;;
74849;SDS011;63397;47.480;19.238;2022-12-07T18:21:37;37.65;;;15.23;;
74849;SDS011;63397;47.480;19.238;2022-12-07T18:24:40;45.17;;;16.67;;
74849;SDS011;63397;47.480;19.238;2022-12-07T18:27:42;48.50;;;17.90;;
74849;SDS011;63397;47.480;19.238;2022-12-07T18:30:45;55.03;;;18.40;;
74849;SDS011;63397;47.480;19.238;2022-12-07T18:34:13;46.05;;;17.25;;
74849;SDS011;63397;47.480;19.238;2022-12-07T18:37:15;44.47;;;17.50;;
74849;SDS011;63397;47.480;19.238;2022-12-07T18:40:18;45.70;;;19.02;;
74849;SDS011;63397;47.480;19.238;2022-12-07T18:43:20;57.67;;;21.33;;
74849;SDS011;63397;47.480;19.238;2022-12-07T18:46:22;50.17;;;20.03;;
74849;SDS011;63397;47.480;19.238;2022-12-07T18:49:25;48.70;;;19.70;;
74849;SDS011;63397;47.480;19.238;2022-12-07T18:52:27;44.20;;;19.15;;
74849;SDS011;63397;47.480;19.238;2022-12-07T18:55:32;49.35;;;18.80;;
74849;SDS011;63397;47.480;19.238;2022-12-07T18:58:34;49.03;;;18.73;;
74849;SDS011;63397;47.480;19.238;2022-12-07T19:01:37;48.10;;;18.53;;
74849;SDS011;63397;47.480;19.238;2022-12-07T19:04:40;54.63;;;19.90;;
74849;SDS011;63397;47.480;19.238;2022-12-07T19:07:42;53.60;;;21.02;;
74849;SDS011;63397;47.480;19.238;2022-12-07T19:10:45;60.63;;;21.00;;
74849;SDS011;63397;47.480;19.238;2022-12-07T19:13:47;52.95;;;20.38;;
74849;SDS011;63397;47.480;19.238;2022-12-07T19:16:51;52.07;;;19.50;;
74849;SDS011;63397;47.480;19.238;2022-12-07T19:19:55;54.67;;;21.88;;
74849;SDS011;63397;47.480;19.238;2022-12-07T19:22:57;62.33;;;24.33;;
74849;SDS011;63397;47.480;19.238;2022-12-07T19:25:59;56.17;;;21.45;;
74849;SDS011;63397;47.480;19.238;2022-12-07T19:29:02;58.15;;;20.85;;
74849;SDS011;63397;47.480;19.238;2022-12-07T19:32:04;51.73;;;19.50;;
74849;SDS011;63397;47.480;19.238;2022-12-07T19:35:10;48.90;;;19.55;;
74849;SDS011;63397;47.480;19.238;2022-12-07T19:38:12;49.35;;;19.80;;
74849;SDS011;63397;47.480;19.238;2022-12-07T19:41:14;48.17;;;17.92;;
74849;SDS011;63397;47.480;19.238;2022-12-07T19:44:35;46.53;;;17.95;;
74849;SDS011;63397;47.480;19.238;2022-12-07T19:47:37;49.17;;;17.63;;
74849;SDS011;63397;47.480;19.238;2022-12-07T19:50:40;46.92;;;17.77;;
74849;SDS011;63397;47.480;19.238;2022-12-07T19:53:43;44.42;;;17.77;;